SEUOP ESGE-ESGG
Flight info
| Callsign | SEUOP |
|---|---|
| Flight time | 0h 15m |
| Altitude | 4000 |
| Route | 574415N0122923E DCT LAV |
| Aircraft | C172/L-SFG/C |
Departure
| Time | 2026-05-07 18:03 |
|---|---|
| Airport | Borås Airfield (ESGE) |
Arrival
| Time | 2026-05-07 18:18 |
|---|---|
| Airport | Göteborg Landvetter Airport (ESGG) |
| Time | Latitude | Longitude | Altitude | Speed | Heading |
|---|---|---|---|---|---|
| 2026-05-07 17:57 | 57.69779 | 12.84671 | 597 ft | 0 kts | 223° |
| 2026-05-07 17:59 | 57.69792 | 12.84670 | 596 ft | 7 kts | 68° |
| 2026-05-07 17:59 | 57.69778 | 12.84743 | 601 ft | 10 kts | 124° |
| 2026-05-07 18:00 | 57.69827 | 12.84893 | 621 ft | 19 kts | 43° |
| 2026-05-07 18:00 | 57.69831 | 12.84909 | 613 ft | 0 kts | 229° |
| 2026-05-07 18:01 | 57.69829 | 12.84903 | 613 ft | 4 kts | 226° |
| 2026-05-07 18:01 | 57.69820 | 12.84887 | 612 ft | 8 kts | 224° |
| 2026-05-07 18:01 | 57.69744 | 12.84750 | 601 ft | 27 kts | 223° |
| 2026-05-07 18:02 | 57.69061 | 12.83670 | 836 ft | 72 kts | 221° |
| 2026-05-07 18:02 | 57.68646 | 12.83098 | 996 ft | 80 kts | 225° |
| 2026-05-07 18:02 | 57.68432 | 12.82062 | 1064 ft | 92 kts | 275° |
| 2026-05-07 18:03 | 57.68543 | 12.80891 | 1285 ft | 90 kts | 288° |
| 2026-05-07 18:03 | 57.68701 | 12.79721 | 1326 ft | 103 kts | 289° |
| 2026-05-07 18:03 | 57.69107 | 12.78569 | 1351 ft | 113 kts | 310° |
| 2026-05-07 18:03 | 57.69444 | 12.77199 | 1333 ft | 119 kts | 285° |
| 2026-05-07 18:04 | 57.69484 | 12.75694 | 1494 ft | 107 kts | 277° |
| 2026-05-07 18:04 | 57.69475 | 12.74241 | 1508 ft | 117 kts | 269° |
| 2026-05-07 18:04 | 57.69412 | 12.72693 | 1510 ft | 120 kts | 271° |
| 2026-05-07 18:04 | 57.69353 | 12.71205 | 1524 ft | 112 kts | 270° |
| 2026-05-07 18:05 | 57.69287 | 12.69734 | 1499 ft | 113 kts | 272° |
| 2026-05-07 18:05 | 57.69231 | 12.68245 | 1503 ft | 116 kts | 271° |
| 2026-05-07 18:05 | 57.69169 | 12.66783 | 1479 ft | 99 kts | 272° |
| 2026-05-07 18:05 | 57.69173 | 12.65673 | 1409 ft | 82 kts | 297° |
| 2026-05-07 18:06 | 57.69686 | 12.65184 | 1535 ft | 94 kts | 338° |
| 2026-05-07 18:06 | 57.70316 | 12.64604 | 1515 ft | 102 kts | 334° |
| 2026-05-07 18:06 | 57.70959 | 12.64069 | 1508 ft | 99 kts | 334° |
| 2026-05-07 18:06 | 57.71584 | 12.63535 | 1499 ft | 98 kts | 334° |
| 2026-05-07 18:07 | 57.72191 | 12.63030 | 1499 ft | 96 kts | 334° |
| 2026-05-07 18:07 | 57.72807 | 12.62520 | 1508 ft | 97 kts | 335° |
| 2026-05-07 18:07 | 57.73416 | 12.61983 | 1499 ft | 94 kts | 334° |
| 2026-05-07 18:07 | 57.73983 | 12.61478 | 1496 ft | 86 kts | 334° |
| 2026-05-07 18:08 | 57.74518 | 12.61032 | 1491 ft | 82 kts | 332° |
| 2026-05-07 18:08 | 57.75007 | 12.60498 | 1507 ft | 79 kts | 326° |
| 2026-05-07 18:08 | 57.75481 | 12.59943 | 1520 ft | 81 kts | 327° |
| 2026-05-07 18:08 | 57.75814 | 12.59073 | 1542 ft | 88 kts | 295° |
| 2026-05-07 18:09 | 57.76141 | 12.57919 | 1518 ft | 108 kts | 298° |
| 2026-05-07 18:09 | 57.76417 | 12.56557 | 1522 ft | 118 kts | 285° |
| 2026-05-07 18:09 | 57.76622 | 12.55044 | 1506 ft | 120 kts | 287° |
| 2026-05-07 18:09 | 57.76837 | 12.53527 | 1519 ft | 122 kts | 287° |
| 2026-05-07 18:10 | 57.77038 | 12.51983 | 1514 ft | 122 kts | 287° |
| 2026-05-07 18:10 | 57.77219 | 12.50430 | 1499 ft | 122 kts | 277° |
| 2026-05-07 18:10 | 57.77139 | 12.48853 | 1504 ft | 122 kts | 268° |
| 2026-05-07 18:10 | 57.77035 | 12.47279 | 1498 ft | 122 kts | 262° |
| 2026-05-07 18:11 | 57.76751 | 12.45748 | 1500 ft | 125 kts | 255° |
| 2026-05-07 18:11 | 57.76573 | 12.44725 | 1503 ft | 124 kts | 253° |
| 2026-05-07 18:11 | 57.75885 | 12.43257 | 1555 ft | 128 kts | 181° |
| 2026-05-07 18:11 | 57.75442 | 12.44453 | 1483 ft | 132 kts | 63° |
| 2026-05-07 18:12 | 57.76054 | 12.44401 | 1554 ft | 117 kts | 276° |
| 2026-05-07 18:12 | 57.75432 | 12.43839 | 1506 ft | 133 kts | 143° |
| 2026-05-07 18:12 | 57.75334 | 12.45394 | 1480 ft | 129 kts | 53° |
| 2026-05-07 18:12 | 57.76066 | 12.45891 | 1571 ft | 114 kts | 338° |
| 2026-05-07 18:13 | 57.76353 | 12.44625 | 1519 ft | 122 kts | 264° |
| 2026-05-07 18:13 | 57.76280 | 12.43186 | 1435 ft | 103 kts | 272° |
| 2026-05-07 18:13 | 57.76168 | 12.41801 | 1449 ft | 113 kts | 259° |
| 2026-05-07 18:13 | 57.75912 | 12.40333 | 1446 ft | 120 kts | 252° |
| 2026-05-07 18:14 | 57.75505 | 12.38965 | 1458 ft | 125 kts | 241° |
| 2026-05-07 18:14 | 57.74946 | 12.37719 | 1417 ft | 117 kts | 232° |
| 2026-05-07 18:14 | 57.74462 | 12.36734 | 1330 ft | 93 kts | 231° |
| 2026-05-07 18:14 | 57.74028 | 12.35887 | 1232 ft | 86 kts | 233° |
| 2026-05-07 18:15 | 57.73579 | 12.35165 | 1261 ft | 83 kts | 219° |
| 2026-05-07 18:15 | 57.73089 | 12.34604 | 1252 ft | 85 kts | 219° |
| 2026-05-07 18:15 | 57.72591 | 12.34026 | 1211 ft | 84 kts | 220° |
| 2026-05-07 18:15 | 57.72071 | 12.33496 | 1173 ft | 86 kts | 216° |
| 2026-05-07 18:16 | 57.71578 | 12.32928 | 1089 ft | 80 kts | 221° |
| 2026-05-07 18:16 | 57.71091 | 12.32425 | 1080 ft | 81 kts | 219° |
| 2026-05-07 18:16 | 57.70580 | 12.31920 | 1024 ft | 83 kts | 213° |
| 2026-05-07 18:16 | 57.70055 | 12.31459 | 964 ft | 83 kts | 218° |
| 2026-05-07 18:17 | 57.69541 | 12.30962 | 890 ft | 80 kts | 245° |
| 2026-05-07 18:17 | 57.69021 | 12.30501 | 830 ft | 85 kts | 213° |
| 2026-05-07 18:17 | 57.68502 | 12.30014 | 751 ft | 86 kts | 210° |
| 2026-05-07 18:17 | 57.67965 | 12.29518 | 631 ft | 87 kts | 213° |
| 2026-05-07 18:18 | 57.67444 | 12.29044 | 541 ft | 78 kts | 215° |
| 2026-05-07 18:18 | 57.66997 | 12.28634 | 524 ft | 65 kts | 216° |
| 2026-05-07 18:18 | 57.66683 | 12.28352 | 519 ft | 34 kts | 180° |
| 2026-05-07 18:18 | 57.66639 | 12.28395 | 519 ft | 7 kts | 32° |
| 2026-05-07 18:19 | 57.66677 | 12.28463 | 519 ft | 7 kts | 57° |
| 2026-05-07 18:19 | 57.66699 | 12.28533 | 519 ft | 9 kts | 58° |
| 2026-05-07 18:19 | 57.66739 | 12.28640 | 519 ft | 10 kts | 53° |
| 2026-05-07 18:19 | 57.66753 | 12.28678 | 520 ft | 0 kts | 61° |
| 2026-05-07 18:20 | 57.66764 | 12.28712 | 520 ft | 0 kts | 58° |
| 2026-05-07 18:21 | 57.66839 | 12.28832 | 521 ft | 27 kts | 24° |
| 2026-05-07 18:21 | 57.66975 | 12.28958 | 522 ft | 20 kts | 23° |
| 2026-05-07 18:22 | 57.67133 | 12.29099 | 524 ft | 24 kts | 25° |
| 2026-05-07 18:22 | 57.67217 | 12.29172 | 525 ft | 17 kts | 21° |
| 2026-05-07 18:22 | 57.67262 | 12.29287 | 525 ft | 0 kts | 115° |
| 2026-05-07 18:24 | 57.67227 | 12.29422 | 525 ft | 27 kts | 116° |
| 2026-05-07 18:24 | 57.67181 | 12.29541 | 525 ft | 3 kts | 259° |
| 2026-05-07 18:24 | 57.67173 | 12.29480 | 525 ft | 7 kts | 245° |
| 2026-05-07 18:24 | 57.67164 | 12.29429 | 525 ft | 5 kts | 250° |
| 2026-05-07 18:25 | 57.67161 | 12.29412 | 525 ft | 0 kts | 251° |
| 2026-05-07 18:25 | 57.67161 | 12.29410 | 525 ft | 0 kts | 251° |